EGSSLETO

Guest
Details From EGSS - London Stansted
To LETO - Torrejon
Flight Number -
Tags decoded
Created
Modified
Stats Distance 701 nm / 1,298 km
Max Altitude 0 ft / 0 m
Waypoints 2
Social Downloads 0
Likes 0
Share VATSIM

Download

Looking for another format? Having issues loading an existing format? Contact us
Advertisement - Login to hide

Notes

Requested: EGSS S1CTCV LETO Unmatched points: S1CTCV

Route

EGSS LETO

ID Type Via Altitude Latitude Longitude Leg Dist Tot Dist Heading (true) Name
O EGSS APT - 0 ft / 0 m 51.88510˚ 0.23496˚ - 0 nm - London Stansted
O LETO APT - 0 ft / 0 m 40.49675˚ -3.44587˚ 700 nm 700 nm 194° / 191° Torrejon

Altitude Profile

Advertisement - Login to hide

Weather


0- 5 10 15 20 25 30 35+ Temperature / ° C

Clouds and Precipitation
Forecast for 2018-05-26 06:00 UTC. Updated 2 hours ago

Ground ~20,000 ft ~40,000 ft Winds

EGSS

Details ICAO EGSS (STN)
Name London Stansted
Region United Kingdom
Timezone Europe/London (UTC+1.0)
Stats Elevation 348 ft / 106 m (AMSL)
Location 51.885097° 0.234962°
Runways 1
Magnetic Variation 0.297° W

METAR

EGSS 260620Z AUTO 01007KT 2200 -RADZ BKN003 15/14 Q1020

Decode

TAF

TAF EGSS 260507Z 2606/2712 03008KT 1200 BR BKN003 BECMG 2606/2609 9999 NSW SCT015 PROB40 2606/2607 0200 FG BKN001 PROB30 TEMPO 2606/2609 +SHRA BECMG 2612/2615 09010KT PROB30 TEMPO 2623/2710 05015G25KT 4000 +TSRA BKN014 BKN045CB

Decode

Departure Runways

ID Width Length Bearing (true) Bearing (mag) Surface Threshold Offset Overrun Length
04 151 ft / 46 m 10,011 ft / 3,052 m 42.79° 43.09° Asphalt 994 ft / 303 m 0 ft / 0 m
22 151 ft / 46 m 10,011 ft / 3,052 m 222.81° 223.11° Asphalt 0 ft / 0 m 0 ft / 0 m

LETO

Details ICAO LETO (TOJ)
Name Torrejon
Region Spain
Timezone Europe/Madrid (UTC+2.0)
Stats Elevation 2,025 ft / 617 m (AMSL)
Location 40.496746° -3.445870°
Runways 1
Magnetic Variation 0.599° W

METAR

LETO 260600Z 00000KT 8000 FEW069 13/13 Q1014 NOSIG

Decode

TAF

TAF LETO 260500Z 2606/2706 VRB04KT 9999 FEW030 TX24/2616Z TN12/2606Z BECMG 2611/2613 21012KT PROB40 TEMPO 2612/2618 SCT030TCU BECMG 2618/2620 VRB04KT

Decode

Destination Runways

ID Width Length Bearing (true) Bearing (mag) Surface Threshold Offset Overrun Length
05 217 ft / 66 m 12,004 ft / 3,659 m 43.28° 43.88° Asphalt 0 ft / 0 m 2,739 ft / 835 m
23 217 ft / 66 m 12,004 ft / 3,659 m 223.30° 223.90° Asphalt 0 ft / 0 m 1,066 ft / 325 m

Approach Navaids

Runway Type Ident Frequency Range Bearing (true) Bearing (mag) Slope Elevation
23 Localiser ITJA 109.50 MHz 18 nm / 33 km 223.26° 223.86° - 2,025 ft / 617 m (AMSL)
23 Glidescope ITJA 109.50 MHz 10 nm / 19 km 223.29° 223.89° 3.00° 2,025 ft / 617 m (AMSL)
23 DME ITJA 109.50 MHz 18 nm / 33 km - - - 2,011 ft / 613 m (AMSL)